createdAt,value
2022-11-24T00:00:24.549Z,16
2022-11-24T00:01:24.563Z,19
2022-11-24T00:02:24.636Z,20
2022-11-24T00:03:24.610Z,13
2022-11-24T00:04:24.558Z,24
2022-11-24T00:05:24.564Z,15
2022-11-24T00:06:24.555Z,26
2022-11-24T00:07:24.558Z,15
2022-11-24T00:08:24.555Z,27
2022-11-24T00:09:24.566Z,21
2022-11-24T00:10:24.555Z,23
2022-11-24T00:12:24.546Z,17
2022-11-24T00:13:24.549Z,16
2022-11-24T00:14:24.558Z,15
2022-11-24T00:15:24.555Z,16
2022-11-24T00:16:24.639Z,17
2022-11-24T00:17:24.614Z,19
2022-11-24T00:18:24.577Z,18
2022-11-24T00:19:24.556Z,24
2022-11-24T00:20:24.577Z,12
2022-11-24T00:21:24.554Z,19
2022-11-24T00:22:24.550Z,16
2022-11-24T00:23:24.550Z,13
2022-11-24T00:25:24.550Z,13
2022-11-24T00:27:24.549Z,12
2022-11-24T00:28:24.561Z,14
2022-11-24T00:29:24.567Z,16
2022-11-24T00:30:24.713Z,19
2022-11-24T00:31:24.596Z,18
2022-11-24T00:32:24.561Z,20
2022-11-24T00:33:24.557Z,15
2022-11-24T00:34:24.558Z,15
2022-11-24T00:35:24.556Z,14
2022-11-24T00:36:24.558Z,23
2022-11-24T00:37:24.549Z,15
2022-11-24T00:38:24.551Z,19
2022-11-24T00:39:24.556Z,20
2022-11-24T00:40:24.548Z,13
2022-11-24T00:41:24.557Z,15
2022-11-24T00:43:24.555Z,11
2022-11-24T00:44:24.610Z,15
2022-11-24T00:45:24.555Z,18
2022-11-24T00:46:24.696Z,18
2022-11-24T00:47:24.610Z,13
2022-11-24T00:48:24.550Z,16
2022-11-24T00:49:24.590Z,14
2022-11-24T00:50:24.561Z,10
2022-11-24T00:52:24.558Z,16
2022-11-24T00:53:24.558Z,18
2022-11-24T00:54:24.557Z,14
2022-11-24T00:55:24.552Z,18
2022-11-24T00:56:24.555Z,15
2022-11-24T00:58:24.566Z,17
2022-11-24T00:59:24.557Z,16
2022-11-24T01:00:24.553Z,13
2022-11-24T01:01:24.625Z,16
2022-11-24T01:02:24.614Z,25
2022-11-24T01:03:24.557Z,20
2022-11-24T01:04:24.663Z,18
2022-11-24T01:05:24.552Z,21
2022-11-24T01:06:24.555Z,16
2022-11-24T01:08:24.556Z,19
2022-11-24T01:09:24.559Z,12
2022-11-24T01:10:24.554Z,20
2022-11-24T01:11:24.561Z,17
2022-11-24T01:13:24.556Z,19
2022-11-24T01:14:24.555Z,19
2022-11-24T01:15:24.559Z,11
2022-11-24T01:16:24.626Z,24
2022-11-24T01:17:24.560Z,19
2022-11-24T01:18:24.561Z,12
2022-11-24T01:19:24.554Z,19
2022-11-24T01:20:24.587Z,19
2022-11-24T01:21:24.554Z,17
2022-11-24T01:22:24.559Z,10
2022-11-24T01:23:24.560Z,13
2022-11-24T01:24:24.556Z,10
2022-11-24T01:25:24.583Z,14
2022-11-24T01:26:24.559Z,24
2022-11-24T01:27:24.559Z,19
2022-11-24T01:28:24.602Z,24
2022-11-24T01:29:24.559Z,13
2022-11-24T01:30:24.561Z,20
2022-11-24T01:31:24.633Z,16
2022-11-24T01:32:24.568Z,15
2022-11-24T01:33:24.557Z,21
2022-11-24T01:34:24.567Z,12
2022-11-24T01:35:24.559Z,20
2022-11-24T01:37:24.555Z,14
2022-11-24T01:38:24.568Z,14
2022-11-24T01:39:24.556Z,14
2022-11-24T01:40:24.551Z,11
2022-11-24T01:41:24.555Z,18
2022-11-24T01:42:24.561Z,19
2022-11-24T01:43:24.809Z,14
2022-11-24T01:45:24.555Z,20
2022-11-24T01:46:24.650Z,13
2022-11-24T01:48:27.478Z,17
2022-11-24T01:49:24.552Z,16
2022-11-24T01:50:24.555Z,17
2022-11-24T01:51:24.593Z,12
2022-11-24T01:52:24.590Z,15
2022-11-24T01:53:24.560Z,23
2022-11-24T01:54:24.557Z,16
2022-11-24T01:55:24.572Z,18
2022-11-24T01:56:24.560Z,14
2022-11-24T01:57:24.563Z,16
2022-11-24T01:58:24.556Z,11
2022-11-24T01:59:24.571Z,18
2022-11-24T02:00:24.560Z,16
2022-11-24T02:01:24.589Z,19
2022-11-24T02:02:24.617Z,16
2022-11-24T02:03:24.567Z,14
2022-11-24T02:04:24.558Z,16
2022-11-24T02:06:24.556Z,21
2022-11-24T02:07:24.631Z,15
2022-11-24T02:08:24.567Z,13
2022-11-24T02:09:24.562Z,19
2022-11-24T02:10:24.565Z,13
2022-11-24T02:12:24.560Z,15
2022-11-24T02:13:24.553Z,17
2022-11-24T02:14:24.560Z,16
2022-11-24T02:15:24.589Z,14
2022-11-24T02:16:24.601Z,12
2022-11-24T02:17:24.569Z,17
2022-11-24T02:19:24.561Z,20
2022-11-24T02:20:24.558Z,15
2022-11-24T02:21:24.642Z,18
2022-11-24T02:22:24.604Z,12
2022-11-24T02:23:24.555Z,15
2022-11-24T02:24:24.576Z,15
2022-11-24T02:25:24.563Z,13
2022-11-24T02:26:24.556Z,14
2022-11-24T02:27:24.575Z,14
2022-11-24T02:28:24.562Z,19
2022-11-24T02:29:24.560Z,13
2022-11-24T02:30:24.565Z,15
2022-11-24T02:31:24.662Z,21
2022-11-24T02:32:24.568Z,15
2022-11-24T02:33:24.557Z,15
2022-11-24T02:34:24.561Z,14
2022-11-24T02:36:24.561Z,14
2022-11-24T02:37:24.562Z,17
2022-11-24T02:38:24.562Z,19
2022-11-24T02:39:24.564Z,11
2022-11-24T02:40:24.575Z,16
2022-11-24T02:41:24.559Z,17
2022-11-24T02:42:24.557Z,13
2022-11-24T02:43:24.559Z,15
2022-11-24T02:44:24.564Z,13
2022-11-24T02:45:24.565Z,16
2022-11-24T02:46:24.617Z,21
2022-11-24T02:47:24.557Z,23
2022-11-24T02:48:24.556Z,18
2022-11-24T02:50:24.557Z,14
2022-11-24T02:51:24.558Z,18
2022-11-24T02:52:24.561Z,13
2022-11-24T02:53:24.681Z,14
2022-11-24T02:55:24.571Z,12
2022-11-24T02:56:24.584Z,19
2022-11-24T02:57:24.561Z,16
2022-11-24T02:58:24.557Z,20
2022-11-24T02:59:24.572Z,20
2022-11-24T03:00:24.557Z,15
2022-11-24T03:01:24.580Z,13
2022-11-24T03:02:24.609Z,14
2022-11-24T03:03:24.562Z,16
2022-11-24T03:04:24.572Z,17
2022-11-24T03:05:24.554Z,16
2022-11-24T03:06:24.563Z,18
2022-11-24T03:07:24.613Z,23
2022-11-24T03:08:24.562Z,19
2022-11-24T03:09:24.632Z,17
2022-11-24T03:11:24.561Z,23
2022-11-24T03:12:24.561Z,13
2022-11-24T03:13:24.561Z,18
2022-11-24T03:14:24.569Z,17
2022-11-24T03:16:24.605Z,17
2022-11-24T03:17:24.566Z,18
2022-11-24T03:18:24.559Z,18
2022-11-24T03:19:24.559Z,17
2022-11-24T03:20:24.565Z,14
2022-11-24T03:22:24.558Z,15
2022-11-24T03:23:24.567Z,13
2022-11-24T03:24:24.592Z,21
2022-11-24T03:25:24.562Z,15
2022-11-24T03:26:24.561Z,21
2022-11-24T03:27:24.564Z,22
2022-11-24T03:28:24.566Z,17
2022-11-24T03:29:24.565Z,16
2022-11-24T03:30:24.571Z,17
2022-11-24T03:31:24.759Z,21
2022-11-24T03:32:24.563Z,11
2022-11-24T03:33:24.561Z,23
2022-11-24T03:34:24.566Z,22
2022-11-24T03:35:24.562Z,17
2022-11-24T03:37:24.565Z,26
2022-11-24T03:38:24.562Z,16
2022-11-24T03:39:24.564Z,15
2022-11-24T03:40:24.574Z,15
2022-11-24T03:41:24.564Z,19
2022-11-24T03:42:24.581Z,17
2022-11-24T03:43:24.574Z,12
2022-11-24T03:44:24.561Z,15
2022-11-24T03:45:46.657Z,14
2022-11-24T03:46:24.639Z,13
2022-11-24T03:47:24.563Z,15
2022-11-24T03:49:24.572Z,27
2022-11-24T03:50:24.571Z,20
2022-11-24T03:51:24.625Z,15
2022-11-24T03:52:24.629Z,15
2022-11-24T03:53:24.609Z,17
2022-11-24T03:54:24.606Z,18
2022-11-24T03:55:24.622Z,15
2022-11-24T03:56:24.607Z,18
2022-11-24T03:57:24.606Z,20
2022-11-24T03:58:24.611Z,25
2022-11-24T03:59:24.616Z,14
2022-11-24T04:00:24.617Z,20
2022-11-24T04:01:24.659Z,16
2022-11-24T04:02:24.641Z,19
2022-11-24T04:04:24.611Z,25
2022-11-24T04:05:24.617Z,20
2022-11-24T04:06:24.633Z,19
2022-11-24T04:07:24.679Z,14
2022-11-24T04:08:24.622Z,17
2022-11-24T04:09:24.615Z,18
2022-11-24T04:10:24.670Z,18
2022-11-24T04:11:24.625Z,15
2022-11-24T04:12:24.614Z,15
2022-11-24T04:13:24.620Z,17
2022-11-24T04:14:24.633Z,22
2022-11-24T04:15:24.611Z,16
2022-11-24T04:16:24.637Z,17
2022-11-24T04:17:24.614Z,22
2022-11-24T04:18:24.613Z,26
2022-11-24T04:19:24.620Z,19
2022-11-24T04:20:24.610Z,17
2022-11-24T04:22:24.627Z,18
2022-11-24T04:23:24.619Z,22
2022-11-24T04:25:24.622Z,18
2022-11-24T04:26:24.622Z,18
2022-11-24T04:27:24.619Z,17
2022-11-24T04:28:24.614Z,17
2022-11-24T04:30:24.626Z,17
2022-11-24T04:31:24.642Z,23
2022-11-24T04:32:24.618Z,19
2022-11-24T04:33:24.612Z,15
2022-11-24T04:34:24.634Z,23
2022-11-24T04:35:24.629Z,19
2022-11-24T04:36:24.620Z,14
2022-11-24T04:37:24.640Z,24
2022-11-24T04:39:25.723Z,26
2022-11-24T04:39:28.121Z,27
2022-11-24T04:40:24.614Z,23
2022-11-24T04:41:24.646Z,18
2022-11-24T04:42:24.615Z,23
2022-11-24T04:43:24.620Z,22
2022-11-24T04:44:24.644Z,15
2022-11-24T04:45:24.613Z,20
2022-11-24T04:46:24.659Z,16
2022-11-24T04:47:24.619Z,19
2022-11-24T04:48:24.616Z,25
2022-11-24T04:49:24.623Z,17
2022-11-24T04:51:24.612Z,25
2022-11-24T04:52:24.623Z,20
2022-11-24T04:54:24.634Z,20
2022-11-24T04:55:24.619Z,14
2022-11-24T04:56:24.626Z,18
2022-11-24T04:57:24.615Z,18
2022-11-24T04:58:25.791Z,23
2022-11-24T04:59:24.618Z,28
2022-11-24T05:00:24.632Z,23
2022-11-24T05:01:24.688Z,19
2022-11-24T05:02:24.632Z,15
2022-11-24T05:03:24.623Z,13
2022-11-24T05:04:24.671Z,19
2022-11-24T05:05:24.618Z,17
2022-11-24T05:06:24.617Z,22
2022-11-24T05:07:24.678Z,27
2022-11-24T05:08:24.623Z,18
2022-11-24T05:09:36.892Z,21
2022-11-24T05:11:24.616Z,15
2022-11-24T05:12:24.656Z,17
2022-11-24T05:13:24.622Z,20
2022-11-24T05:14:24.624Z,27
2022-11-24T05:15:24.623Z,22
2022-11-24T05:16:24.721Z,16
2022-11-24T05:17:24.616Z,24
2022-11-24T05:18:24.648Z,15
2022-11-24T05:19:27.322Z,19
2022-11-24T05:20:24.617Z,19
2022-11-24T05:21:24.618Z,15
2022-11-24T05:22:24.666Z,26
2022-11-24T05:23:24.628Z,21
2022-11-24T05:24:24.626Z,22
2022-11-24T05:25:24.618Z,18
2022-11-24T05:26:24.624Z,21
2022-11-24T05:27:24.617Z,16
2022-11-24T05:28:24.623Z,17
2022-11-24T05:30:24.800Z,22
2022-11-24T05:32:24.618Z,26
2022-11-24T05:33:24.627Z,21
2022-11-24T05:34:24.619Z,19
2022-11-24T05:35:24.683Z,29
2022-11-24T05:36:24.624Z,18
2022-11-24T05:37:24.635Z,22
2022-11-24T05:38:24.623Z,24
2022-11-24T05:40:24.625Z,26
2022-11-24T05:41:24.625Z,23
2022-11-24T05:42:24.631Z,25
2022-11-24T05:43:24.660Z,22
2022-11-24T05:44:24.621Z,21
2022-11-24T05:45:24.625Z,18
2022-11-24T05:46:24.696Z,22
2022-11-24T05:47:24.621Z,27
2022-11-24T05:48:24.629Z,17
2022-11-24T05:49:24.621Z,23
2022-11-24T05:50:24.621Z,26
2022-11-24T05:51:24.627Z,28
2022-11-24T05:52:24.699Z,26
2022-11-24T05:53:24.620Z,27
2022-11-24T05:54:24.629Z,16
2022-11-24T05:56:24.625Z,19
2022-11-24T05:57:24.620Z,20
2022-11-24T05:58:24.619Z,15
2022-11-24T05:59:24.638Z,18
2022-11-24T06:00:24.623Z,21
2022-11-24T06:01:24.641Z,25
2022-11-24T06:02:24.787Z,25
2022-11-24T06:04:24.924Z,19
2022-11-24T06:05:24.658Z,23
2022-11-24T06:06:24.618Z,19
2022-11-24T06:07:24.715Z,30
2022-11-24T06:08:30.717Z,22
2022-11-24T06:09:24.633Z,32
2022-11-24T06:10:24.627Z,23
2022-11-24T06:11:24.623Z,23
2022-11-24T06:12:24.627Z,23
2022-11-24T06:13:24.661Z,17
2022-11-24T06:14:24.652Z,24
2022-11-24T06:15:24.634Z,19
2022-11-24T06:16:24.688Z,30
2022-11-24T06:17:24.619Z,20
2022-11-24T06:18:24.627Z,20
2022-11-24T06:19:24.635Z,22
2022-11-24T06:20:29.695Z,23
2022-11-24T06:21:24.620Z,22
2022-11-24T06:22:24.627Z,18
2022-11-24T06:23:24.621Z,27
2022-11-24T06:25:24.630Z,22
2022-11-24T06:26:24.674Z,28
2022-11-24T06:27:24.616Z,22
2022-11-24T06:28:24.625Z,15
2022-11-24T06:29:24.638Z,22
2022-11-24T06:30:24.635Z,20
2022-11-24T06:31:24.664Z,23
2022-11-24T06:32:24.632Z,28
2022-11-24T06:33:24.630Z,25
2022-11-24T06:34:24.631Z,21
2022-11-24T06:35:24.622Z,26
2022-11-24T06:36:24.626Z,15
2022-11-24T06:37:24.627Z,27
2022-11-24T06:38:24.664Z,29
2022-11-24T06:39:24.619Z,18
2022-11-24T06:40:24.622Z,20
2022-11-24T06:41:24.629Z,28
2022-11-24T06:42:24.621Z,23
2022-11-24T06:43:24.626Z,24
2022-11-24T06:44:24.622Z,22
2022-11-24T06:45:24.650Z,18
2022-11-24T06:46:24.627Z,19
2022-11-24T06:47:24.621Z,31
2022-11-24T06:48:24.629Z,22
2022-11-24T06:49:24.649Z,16
2022-11-24T06:50:26.896Z,22
2022-11-24T06:51:24.627Z,16
2022-11-24T06:52:24.630Z,24
2022-11-24T06:53:24.625Z,20
2022-11-24T06:54:24.627Z,28
2022-11-24T06:55:24.659Z,26
2022-11-24T06:57:24.627Z,22
2022-11-24T06:58:24.622Z,21
2022-11-24T06:59:24.628Z,19
2022-11-24T07:00:24.625Z,20
2022-11-24T07:01:24.719Z,27
2022-11-24T07:02:24.650Z,18
2022-11-24T07:03:24.691Z,23
2022-11-24T07:04:24.638Z,19
2022-11-24T07:05:24.633Z,18
2022-11-24T07:06:24.621Z,23
2022-11-24T07:07:24.721Z,23
2022-11-24T07:08:24.625Z,20
2022-11-24T07:09:24.628Z,23
2022-11-24T07:10:24.623Z,20
2022-11-24T07:11:24.632Z,23
2022-11-24T07:12:24.624Z,20
2022-11-24T07:13:24.630Z,19
2022-11-24T07:14:24.628Z,12
2022-11-24T07:15:24.627Z,21
2022-11-24T07:16:24.744Z,15
2022-11-24T07:18:24.623Z,19
2022-11-24T07:19:25.351Z,20
2022-11-24T07:20:24.623Z,18
2022-11-24T07:21:24.726Z,21
2022-11-24T07:22:24.623Z,17
2022-11-24T07:23:24.634Z,16
2022-11-24T07:24:24.628Z,22
2022-11-24T07:25:24.643Z,17
2022-11-24T07:26:24.631Z,17
2022-11-24T07:27:24.631Z,20
2022-11-24T07:28:24.646Z,19
2022-11-24T07:29:24.630Z,18
2022-11-24T07:30:24.645Z,15
2022-11-24T07:31:24.686Z,16
2022-11-24T07:32:24.627Z,19
2022-11-24T07:33:24.625Z,16
2022-11-24T07:34:24.621Z,17
2022-11-24T07:35:24.623Z,21
2022-11-24T07:36:24.662Z,16
2022-11-24T07:37:30.889Z,12
2022-11-24T07:38:24.633Z,13
2022-11-24T07:39:24.633Z,16
2022-11-24T07:40:24.628Z,15
2022-11-24T07:41:24.626Z,14
2022-11-24T07:43:24.630Z,19
2022-11-24T07:44:24.624Z,10
2022-11-24T07:45:24.632Z,11
2022-11-24T07:46:24.703Z,15
2022-11-24T07:47:24.655Z,12
2022-11-24T07:48:24.625Z,10
2022-11-24T07:49:24.626Z,19
2022-11-24T07:50:24.635Z,14
2022-11-24T07:51:24.622Z,11
2022-11-24T07:52:24.624Z,9
2022-11-24T07:54:24.625Z,10
2022-11-24T07:55:24.629Z,12
2022-11-24T07:56:24.627Z,15
2022-11-24T07:57:24.634Z,10
2022-11-24T07:58:27.683Z,10
2022-11-24T07:59:24.625Z,12
2022-11-24T08:00:24.664Z,12
2022-11-24T08:01:24.681Z,13
2022-11-24T08:02:24.636Z,10
2022-11-24T08:03:24.713Z,17
2022-11-24T08:04:24.633Z,12
2022-11-24T08:05:24.688Z,14
2022-11-24T08:06:27.666Z,8
2022-11-24T08:07:24.630Z,12
2022-11-24T08:08:24.628Z,12
2022-11-24T08:09:24.625Z,11
2022-11-24T08:10:24.635Z,10
2022-11-24T08:11:24.633Z,18
2022-11-24T08:12:24.668Z,15
2022-11-24T08:13:24.625Z,7
2022-11-24T08:15:24.628Z,10
2022-11-24T08:16:24.666Z,7
2022-11-24T08:17:24.627Z,8
2022-11-24T08:18:24.658Z,6
2022-11-24T08:19:24.661Z,9
2022-11-24T08:20:24.636Z,7
2022-11-24T08:21:24.649Z,9
2022-11-24T08:22:24.636Z,9
2022-11-24T08:23:24.635Z,8
2022-11-24T08:24:24.640Z,6
2022-11-24T08:25:24.648Z,6
2022-11-24T08:26:24.636Z,6
2022-11-24T08:27:24.629Z,8
2022-11-24T08:28:24.646Z,5
2022-11-24T08:29:24.640Z,6
2022-11-24T08:30:24.717Z,7
2022-11-24T08:31:24.695Z,10
2022-11-24T08:32:24.680Z,7
2022-11-24T08:33:24.631Z,7
2022-11-24T08:34:24.635Z,5
2022-11-24T08:35:24.639Z,5
2022-11-24T08:36:24.634Z,7
2022-11-24T08:37:24.629Z,7
2022-11-24T08:38:24.625Z,3
2022-11-24T08:39:24.635Z,7
2022-11-24T08:40:24.653Z,6
2022-11-24T08:41:24.634Z,7
2022-11-24T08:42:24.633Z,7
2022-11-24T08:43:24.628Z,3
2022-11-24T08:44:24.634Z,4
2022-11-24T08:45:25.675Z,4
2022-11-24T08:46:24.700Z,4
2022-11-24T08:47:24.640Z,8
2022-11-24T08:48:24.628Z,5
2022-11-24T08:49:24.661Z,7
2022-11-24T08:50:24.634Z,4
2022-11-24T08:51:24.645Z,11
2022-11-24T08:52:24.632Z,6
2022-11-24T08:53:24.638Z,6
2022-11-24T08:54:24.635Z,5
2022-11-24T08:55:24.633Z,9
2022-11-24T08:56:24.632Z,8
2022-11-24T08:57:24.631Z,6
2022-11-24T08:58:24.630Z,10
2022-11-24T08:59:24.703Z,4
2022-11-24T09:00:24.636Z,5
2022-11-24T09:01:24.699Z,7
2022-11-24T09:02:24.628Z,7
2022-11-24T09:03:24.693Z,9
2022-11-24T09:04:24.660Z,6
2022-11-24T09:05:50.839Z,7
2022-11-24T09:06:24.644Z,4
2022-11-24T09:07:24.674Z,13
2022-11-24T09:08:24.634Z,7
2022-11-24T09:09:24.641Z,7
2022-11-24T09:10:24.639Z,13
2022-11-24T09:11:24.630Z,9
2022-11-24T09:12:24.632Z,7
2022-11-24T09:13:24.638Z,8
2022-11-24T09:14:24.637Z,7
2022-11-24T09:15:24.635Z,10
2022-11-24T09:16:24.649Z,6
2022-11-24T09:18:29.979Z,5
2022-11-24T09:19:24.631Z,11
2022-11-24T09:20:24.715Z,15
2022-11-24T09:21:24.649Z,7
2022-11-24T09:22:24.632Z,7
2022-11-24T09:23:24.629Z,7
2022-11-24T09:24:24.640Z,11
2022-11-24T09:25:24.631Z,8
2022-11-24T09:26:24.638Z,8
2022-11-24T09:27:24.637Z,8
2022-11-24T09:28:24.638Z,8
2022-11-24T09:29:24.634Z,9
2022-11-24T09:30:24.644Z,7
2022-11-24T09:31:24.851Z,7
2022-11-24T09:32:24.643Z,6
2022-11-24T09:33:24.641Z,5
2022-11-24T09:34:24.646Z,8
2022-11-24T09:35:24.640Z,5
2022-11-24T09:36:24.646Z,12
2022-11-24T09:37:29.535Z,10
2022-11-24T09:39:24.635Z,7
2022-11-24T09:40:24.639Z,6
2022-11-24T09:41:24.645Z,10
2022-11-24T09:42:24.636Z,9
2022-11-24T09:43:24.634Z,6
2022-11-24T09:44:24.640Z,8
2022-11-24T09:45:48.989Z,9
2022-11-24T09:46:24.702Z,7
2022-11-24T09:47:24.635Z,8
2022-11-24T09:48:24.633Z,13
2022-11-24T09:50:24.635Z,7
2022-11-24T09:51:24.665Z,8
2022-11-24T09:52:24.642Z,10
2022-11-24T09:53:24.639Z,12
2022-11-24T09:54:24.633Z,8
2022-11-24T09:55:24.632Z,6
2022-11-24T09:56:24.642Z,7
2022-11-24T09:57:24.635Z,7
2022-11-24T09:58:24.662Z,9
2022-11-24T09:59:24.639Z,10
2022-11-24T10:00:24.638Z,7
2022-11-24T10:01:24.732Z,10
2022-11-24T10:02:24.641Z,6
2022-11-24T10:03:24.633Z,11
2022-11-24T10:04:24.668Z,8
2022-11-24T10:05:24.646Z,11
2022-11-24T10:06:24.643Z,9
2022-11-24T10:07:24.692Z,11
2022-11-24T10:08:24.636Z,14
2022-11-24T10:10:25.372Z,7
2022-11-24T10:11:24.700Z,11
2022-11-24T10:12:24.639Z,8
2022-11-24T10:13:24.640Z,13
2022-11-24T10:14:24.646Z,12
2022-11-24T10:15:24.634Z,9
2022-11-24T10:16:24.729Z,9
2022-11-24T10:17:24.657Z,9
2022-11-24T10:18:24.638Z,8
2022-11-24T10:19:34.453Z,11
2022-11-24T10:20:24.636Z,7
2022-11-24T10:21:24.640Z,14
2022-11-24T10:22:24.671Z,7
2022-11-24T10:23:24.639Z,11
2022-11-24T10:24:24.641Z,15
2022-11-24T10:25:24.640Z,18
2022-11-24T10:26:24.637Z,13
2022-11-24T10:27:24.634Z,7
2022-11-24T10:28:24.641Z,11
2022-11-24T10:29:24.646Z,14
2022-11-24T10:31:24.694Z,11
2022-11-24T10:32:24.646Z,12
2022-11-24T10:33:30.092Z,7
2022-11-24T10:34:24.647Z,9
2022-11-24T10:35:24.641Z,10
2022-11-24T10:36:24.645Z,10
2022-11-24T10:37:24.636Z,9
2022-11-24T10:38:24.651Z,10
2022-11-24T10:39:24.647Z,12
2022-11-24T10:40:49.172Z,13
2022-11-24T10:41:24.633Z,11
2022-11-24T10:42:24.912Z,10
2022-11-24T10:43:24.641Z,20
2022-11-24T10:44:24.647Z,11
2022-11-24T10:45:24.645Z,19
2022-11-24T10:46:24.769Z,13
2022-11-24T10:47:24.688Z,12
2022-11-24T10:48:24.641Z,11
2022-11-24T10:49:24.644Z,7
2022-11-24T10:50:24.643Z,12
2022-11-24T10:51:24.646Z,12
2022-11-24T10:52:24.646Z,15
2022-11-24T10:53:24.667Z,8
2022-11-24T10:54:24.656Z,10
2022-11-24T10:55:24.640Z,10
2022-11-24T10:56:24.641Z,15
2022-11-24T10:57:24.669Z,11
2022-11-24T10:58:24.641Z,11
2022-11-24T10:59:24.642Z,22
2022-11-24T11:00:24.638Z,14
2022-11-24T11:01:24.671Z,8
2022-11-24T11:02:24.677Z,10
2022-11-24T11:03:24.636Z,18
2022-11-24T11:04:24.654Z,13
2022-11-24T11:05:24.646Z,11
2022-11-24T11:07:24.695Z,16
2022-11-24T11:08:24.661Z,12
2022-11-24T11:09:24.644Z,16
2022-11-24T11:11:24.640Z,17
2022-11-24T11:12:49.573Z,10
2022-11-24T11:13:24.645Z,10
2022-11-24T11:14:24.654Z,18
2022-11-24T11:15:24.641Z,9
2022-11-24T11:16:24.680Z,11
2022-11-24T11:17:24.645Z,12
2022-11-24T11:18:24.644Z,25
2022-11-24T11:19:47.449Z,12
2022-11-24T11:20:24.666Z,13
2022-11-24T11:21:24.652Z,11
2022-11-24T11:22:24.641Z,11
2022-11-24T11:23:24.643Z,9
2022-11-24T11:24:24.665Z,11
2022-11-24T11:25:24.655Z,11
2022-11-24T11:26:24.642Z,12
2022-11-24T11:27:24.670Z,13
2022-11-24T11:28:24.702Z,13
2022-11-24T11:31:24.746Z,13
2022-11-24T11:35:24.648Z,7
2022-11-24T11:36:24.725Z,13
2022-11-24T11:37:24.650Z,15
2022-11-24T11:38:24.687Z,12
2022-11-24T11:39:24.650Z,12
2022-11-24T11:40:24.643Z,18
2022-11-24T11:41:24.643Z,15
2022-11-24T11:43:00.830Z,14
2022-11-24T11:43:24.710Z,16
2022-11-24T11:44:24.655Z,15
2022-11-24T11:45:24.662Z,23
2022-11-24T11:46:24.702Z,16
2022-11-24T11:47:24.640Z,15
2022-11-24T11:48:24.652Z,15
2022-11-24T11:49:24.643Z,14
2022-11-24T11:50:24.696Z,11
2022-11-24T11:51:24.811Z,16
2022-11-24T11:52:24.645Z,12
2022-11-24T11:53:24.650Z,19
2022-11-24T11:54:24.652Z,16
2022-11-24T11:55:24.691Z,13
2022-11-24T11:56:24.637Z,10
2022-11-24T11:57:24.646Z,20
2022-11-24T11:58:24.648Z,11
2022-11-24T11:59:24.650Z,12
2022-11-24T12:00:24.653Z,16
2022-11-24T12:01:24.636Z,9
2022-11-24T12:02:24.761Z,11
2022-11-24T12:03:24.735Z,11
2022-11-24T12:04:24.637Z,14
2022-11-24T12:05:24.648Z,21
2022-11-24T12:06:24.649Z,13
2022-11-24T12:07:24.672Z,16
2022-11-24T12:08:24.735Z,12
2022-11-24T12:09:24.646Z,14
2022-11-24T12:10:24.655Z,18
2022-11-24T12:11:24.647Z,16
2022-11-24T12:12:24.672Z,15
2022-11-24T12:13:24.655Z,12
2022-11-24T12:14:24.647Z,19
2022-11-24T12:15:24.648Z,11
2022-11-24T12:17:24.645Z,14
2022-11-24T12:18:55.152Z,13
2022-11-24T12:19:24.655Z,11
2022-11-24T12:20:24.642Z,12
2022-11-24T12:21:26.618Z,17
2022-11-24T12:22:24.652Z,15
2022-11-24T12:23:24.644Z,13
2022-11-24T12:24:24.664Z,15
2022-11-24T12:25:24.646Z,16
2022-11-24T12:26:24.680Z,11
2022-11-24T12:27:24.644Z,20
2022-11-24T12:28:24.650Z,15
2022-11-24T12:29:24.673Z,11
2022-11-24T12:30:24.652Z,16
2022-11-24T12:31:24.824Z,19
2022-11-24T12:32:24.641Z,22
2022-11-24T12:33:24.643Z,12
2022-11-24T12:34:24.656Z,10
2022-11-24T12:35:24.657Z,14
2022-11-24T12:36:24.643Z,10
2022-11-24T12:37:24.655Z,14
2022-11-24T12:38:24.651Z,11
2022-11-24T12:40:24.645Z,17
2022-11-24T12:41:41.312Z,14
2022-11-24T12:43:24.648Z,13
2022-11-24T12:44:24.648Z,12
2022-11-24T12:45:24.646Z,14
2022-11-24T12:46:24.680Z,12
2022-11-24T12:47:24.657Z,17
2022-11-24T12:48:24.657Z,17
2022-11-24T12:50:24.668Z,16
2022-11-24T12:51:24.649Z,15
2022-11-24T12:52:24.648Z,14
2022-11-24T12:53:24.649Z,13
2022-11-24T12:55:24.655Z,19
2022-11-24T12:56:24.650Z,16
2022-11-24T12:57:24.680Z,15
2022-11-24T12:58:24.662Z,15
2022-11-24T12:59:24.661Z,14
2022-11-24T13:00:24.657Z,12
2022-11-24T13:01:24.867Z,12
2022-11-24T13:02:24.798Z,11
2022-11-24T13:03:24.680Z,12
2022-11-24T13:04:24.655Z,14
2022-11-24T13:05:24.653Z,17
2022-11-24T13:06:24.655Z,13
2022-11-24T13:07:24.704Z,15
2022-11-24T13:08:24.657Z,16
2022-11-24T13:09:24.667Z,14
2022-11-24T13:10:46.632Z,12
2022-11-24T13:11:24.794Z,17
2022-11-24T13:12:24.653Z,13
2022-11-24T13:13:24.679Z,13
2022-11-24T13:14:24.657Z,11
2022-11-24T13:15:45.250Z,14
2022-11-24T13:16:53.466Z,14
2022-11-24T13:17:38.273Z,12
2022-11-24T13:18:24.683Z,15
2022-11-24T13:19:24.657Z,9
2022-11-24T13:20:24.670Z,18
2022-11-24T13:21:24.667Z,13
2022-11-24T13:22:24.658Z,17
2022-11-24T13:23:24.650Z,18
2022-11-24T13:24:24.656Z,10
2022-11-24T13:25:24.655Z,11
2022-11-24T13:26:24.664Z,19
2022-11-24T13:27:24.669Z,14
2022-11-24T13:28:54.028Z,16
2022-11-24T13:29:25.608Z,15
2022-11-24T13:30:24.663Z,9
2022-11-24T13:31:24.811Z,14
2022-11-24T13:32:24.653Z,17
2022-11-24T13:33:27.142Z,14
2022-11-24T13:34:24.653Z,14
2022-11-24T13:35:24.657Z,20
2022-11-24T13:36:24.657Z,10
2022-11-24T13:37:26.596Z,13
2022-11-24T13:38:24.654Z,11
2022-11-24T13:39:24.654Z,17
2022-11-24T13:40:24.657Z,22
2022-11-24T13:41:31.311Z,18
2022-11-24T13:42:42.875Z,15
2022-11-24T13:43:24.654Z,16
2022-11-24T13:44:24.680Z,14
2022-11-24T13:45:24.664Z,14
2022-11-24T13:46:24.723Z,18
2022-11-24T13:47:24.654Z,14
2022-11-24T13:48:24.655Z,16
2022-11-24T13:49:24.657Z,21
2022-11-24T13:50:24.662Z,17
2022-11-24T13:51:24.684Z,11
2022-11-24T13:52:24.653Z,14
2022-11-24T13:53:24.655Z,16
2022-11-24T13:54:24.662Z,20
2022-11-24T13:55:24.656Z,16
2022-11-24T13:56:24.667Z,11
2022-11-24T13:57:24.657Z,11
2022-11-24T13:58:24.649Z,13
2022-11-24T13:59:24.658Z,22
2022-11-24T14:00:24.657Z,15
2022-11-24T14:01:24.781Z,15
2022-11-24T14:02:24.656Z,16
2022-11-24T14:03:24.773Z,16
2022-11-24T14:04:33.074Z,13
2022-11-24T14:05:24.656Z,15
2022-11-24T14:06:24.703Z,16
2022-11-24T14:07:24.690Z,15
2022-11-24T14:09:24.665Z,14
2022-11-24T14:10:24.658Z,13
2022-11-24T14:11:24.668Z,13
2022-11-24T14:12:24.655Z,20
2022-11-24T14:14:24.659Z,17
2022-11-24T14:15:24.693Z,17
2022-11-24T14:16:24.713Z,15
2022-11-24T14:17:24.657Z,13
2022-11-24T14:18:24.651Z,16
2022-11-24T14:19:26.709Z,14
2022-11-24T14:20:24.670Z,19
2022-11-24T14:21:24.662Z,18
2022-11-24T14:22:24.659Z,12
2022-11-24T14:23:24.662Z,16
2022-11-24T14:24:24.659Z,14
2022-11-24T14:25:24.667Z,19
2022-11-24T14:26:24.667Z,15
2022-11-24T14:27:24.658Z,15
2022-11-24T14:28:24.742Z,20
2022-11-24T14:29:24.661Z,21
2022-11-24T14:30:24.669Z,17
2022-11-24T14:31:24.830Z,14
2022-11-24T14:32:24.685Z,18
2022-11-24T14:33:24.660Z,11
2022-11-24T14:34:24.665Z,12
2022-11-24T14:35:24.714Z,16
2022-11-24T14:36:24.670Z,16
2022-11-24T14:38:24.659Z,15
2022-11-24T14:39:24.680Z,14
2022-11-24T14:40:24.668Z,16
2022-11-24T14:41:24.662Z,12
2022-11-24T14:42:24.679Z,11
2022-11-24T14:43:24.668Z,15
2022-11-24T14:44:24.666Z,15
2022-11-24T14:45:24.750Z,14
2022-11-24T14:46:24.753Z,14
2022-11-24T14:47:30.523Z,15
2022-11-24T14:48:24.687Z,15
2022-11-24T14:49:24.678Z,19
2022-11-24T14:50:24.744Z,16
2022-11-24T14:51:24.680Z,14
2022-11-24T14:52:24.669Z,14
2022-11-24T14:53:26.058Z,15
2022-11-24T14:54:24.672Z,14
2022-11-24T14:55:24.676Z,13
2022-11-24T14:56:24.660Z,18
2022-11-24T14:57:24.657Z,15
2022-11-24T14:59:24.670Z,16
2022-11-24T15:01:24.716Z,12
2022-11-24T15:02:24.732Z,13
2022-11-24T15:03:24.663Z,15
2022-11-24T15:05:01.697Z,17
2022-11-24T15:05:24.832Z,10
2022-11-24T15:06:24.671Z,18
2022-11-24T15:07:24.740Z,13
2022-11-24T15:08:24.663Z,14
2022-11-24T15:09:24.663Z,23
2022-11-24T15:10:29.088Z,16
2022-11-24T15:12:24.675Z,22
2022-11-24T15:13:24.671Z,11
2022-11-24T15:14:24.676Z,13
2022-11-24T15:15:24.674Z,13
2022-11-24T15:16:24.690Z,18
2022-11-24T15:17:24.689Z,18
2022-11-24T15:18:24.673Z,20
2022-11-24T15:19:24.685Z,20
2022-11-24T15:20:24.672Z,16
2022-11-24T15:21:24.664Z,18
2022-11-24T15:22:24.670Z,20